sensor_id;sensor_type;location;lat;lon;timestamp;P1;durP1;ratioP1;P2;durP2;ratioP2
27746;SDS011;15138;51.012;4.692;2023-08-21T00:01:31;3.05;;;1.25;;
27746;SDS011;15138;51.012;4.692;2023-08-21T00:03:59;3.17;;;1.10;;
27746;SDS011;15138;51.012;4.692;2023-08-21T00:06:27;2.25;;;0.90;;
27746;SDS011;15138;51.012;4.692;2023-08-21T00:08:55;3.78;;;1.30;;
27746;SDS011;15138;51.012;4.692;2023-08-21T00:11:24;3.40;;;0.90;;
27746;SDS011;15138;51.012;4.692;2023-08-21T00:13:53;1.77;;;0.80;;
27746;SDS011;15138;51.012;4.692;2023-08-21T00:16:21;2.67;;;1.20;;
27746;SDS011;15138;51.012;4.692;2023-08-21T00:18:50;1.35;;;0.70;;
27746;SDS011;15138;51.012;4.692;2023-08-21T00:21:18;3.95;;;1.20;;
27746;SDS011;15138;51.012;4.692;2023-08-21T00:23:47;1.58;;;0.82;;
27746;SDS011;15138;51.012;4.692;2023-08-21T00:26:15;3.15;;;1.05;;
27746;SDS011;15138;51.012;4.692;2023-08-21T00:28:43;2.75;;;0.93;;
27746;SDS011;15138;51.012;4.692;2023-08-21T00:31:12;1.83;;;0.88;;
27746;SDS011;15138;51.012;4.692;2023-08-21T00:33:40;3.00;;;0.82;;
27746;SDS011;15138;51.012;4.692;2023-08-21T00:36:09;3.50;;;1.20;;
27746;SDS011;15138;51.012;4.692;2023-08-21T00:38:37;3.83;;;1.25;;
27746;SDS011;15138;51.012;4.692;2023-08-21T00:41:06;2.15;;;1.02;;
27746;SDS011;15138;51.012;4.692;2023-08-21T00:43:34;4.90;;;1.08;;
27746;SDS011;15138;51.012;4.692;2023-08-21T00:46:02;4.70;;;0.93;;
27746;SDS011;15138;51.012;4.692;2023-08-21T00:48:32;4.70;;;1.40;;
27746;SDS011;15138;51.012;4.692;2023-08-21T00:51:03;5.72;;;1.35;;
27746;SDS011;15138;51.012;4.692;2023-08-21T00:53:34;2.40;;;0.90;;
27746;SDS011;15138;51.012;4.692;2023-08-21T00:56:02;2.47;;;1.10;;
27746;SDS011;15138;51.012;4.692;2023-08-21T00:58:31;2.25;;;0.90;;
27746;SDS011;15138;51.012;4.692;2023-08-21T01:00:59;5.72;;;1.70;;
27746;SDS011;15138;51.012;4.692;2023-08-21T01:03:27;1.92;;;0.80;;
27746;SDS011;15138;51.012;4.692;2023-08-21T01:05:57;2.70;;;1.00;;
27746;SDS011;15138;51.012;4.692;2023-08-21T01:08:26;3.55;;;1.15;;
27746;SDS011;15138;51.012;4.692;2023-08-21T01:10:58;2.45;;;1.10;;
27746;SDS011;15138;51.012;4.692;2023-08-21T01:13:36;3.10;;;1.10;;
27746;SDS011;15138;51.012;4.692;2023-08-21T01:16:11;3.10;;;1.23;;
27746;SDS011;15138;51.012;4.692;2023-08-21T01:18:42;2.95;;;1.02;;
27746;SDS011;15138;51.012;4.692;2023-08-21T01:21:13;2.88;;;0.98;;
27746;SDS011;15138;51.012;4.692;2023-08-21T01:23:44;4.63;;;1.15;;
27746;SDS011;15138;51.012;4.692;2023-08-21T01:26:12;5.32;;;1.35;;
27746;SDS011;15138;51.012;4.692;2023-08-21T01:28:40;2.47;;;1.00;;
27746;SDS011;15138;51.012;4.692;2023-08-21T01:31:10;3.95;;;1.38;;
27746;SDS011;15138;51.012;4.692;2023-08-21T01:33:44;5.15;;;0.88;;
27746;SDS011;15138;51.012;4.692;2023-08-21T01:36:15;3.58;;;1.00;;
27746;SDS011;15138;51.012;4.692;2023-08-21T01:38:44;6.22;;;1.58;;
27746;SDS011;15138;51.012;4.692;2023-08-21T01:41:13;4.82;;;1.05;;
27746;SDS011;15138;51.012;4.692;2023-08-21T01:43:42;2.58;;;1.00;;
27746;SDS011;15138;51.012;4.692;2023-08-21T01:46:10;3.80;;;1.15;;
27746;SDS011;15138;51.012;4.692;2023-08-21T01:48:39;3.10;;;0.95;;
27746;SDS011;15138;51.012;4.692;2023-08-21T01:51:07;3.75;;;1.20;;
27746;SDS011;15138;51.012;4.692;2023-08-21T01:53:36;4.68;;;1.15;;
27746;SDS011;15138;51.012;4.692;2023-08-21T01:56:05;3.70;;;0.90;;
27746;SDS011;15138;51.012;4.692;2023-08-21T01:58:33;2.70;;;1.08;;
27746;SDS011;15138;51.012;4.692;2023-08-21T02:01:01;2.55;;;1.00;;
27746;SDS011;15138;51.012;4.692;2023-08-21T02:03:31;3.45;;;1.00;;
27746;SDS011;15138;51.012;4.692;2023-08-21T02:05:59;2.15;;;1.00;;
27746;SDS011;15138;51.012;4.692;2023-08-21T02:08:30;5.72;;;1.30;;
27746;SDS011;15138;51.012;4.692;2023-08-21T02:10:59;3.20;;;1.00;;
27746;SDS011;15138;51.012;4.692;2023-08-21T02:13:29;3.90;;;1.23;;
27746;SDS011;15138;51.012;4.692;2023-08-21T02:15:59;1.90;;;1.02;;
27746;SDS011;15138;51.012;4.692;2023-08-21T02:18:28;2.90;;;1.00;;
27746;SDS011;15138;51.012;4.692;2023-08-21T02:20:56;3.55;;;1.15;;
27746;SDS011;15138;51.012;4.692;2023-08-21T02:23:25;4.68;;;1.77;;
27746;SDS011;15138;51.012;4.692;2023-08-21T02:25:53;2.88;;;0.98;;
27746;SDS011;15138;51.012;4.692;2023-08-21T02:28:21;2.85;;;1.10;;
27746;SDS011;15138;51.012;4.692;2023-08-21T02:30:51;4.25;;;1.17;;
27746;SDS011;15138;51.012;4.692;2023-08-21T02:33:19;3.92;;;1.30;;
27746;SDS011;15138;51.012;4.692;2023-08-21T02:35:47;4.20;;;1.00;;
27746;SDS011;15138;51.012;4.692;2023-08-21T02:38:15;2.58;;;0.85;;
27746;SDS011;15138;51.012;4.692;2023-08-21T02:40:46;5.00;;;1.23;;
27746;SDS011;15138;51.012;4.692;2023-08-21T02:43:14;3.45;;;1.00;;
27746;SDS011;15138;51.012;4.692;2023-08-21T02:45:43;5.57;;;1.35;;
27746;SDS011;15138;51.012;4.692;2023-08-21T02:48:13;2.00;;;1.10;;
27746;SDS011;15138;51.012;4.692;2023-08-21T02:50:41;3.30;;;1.38;;
27746;SDS011;15138;51.012;4.692;2023-08-21T02:53:10;2.42;;;1.00;;
27746;SDS011;15138;51.012;4.692;2023-08-21T02:55:38;3.83;;;1.30;;
27746;SDS011;15138;51.012;4.692;2023-08-21T02:58:07;2.80;;;1.02;;
27746;SDS011;15138;51.012;4.692;2023-08-21T03:00:36;2.95;;;1.48;;
27746;SDS011;15138;51.012;4.692;2023-08-21T03:03:04;4.45;;;1.15;;
27746;SDS011;15138;51.012;4.692;2023-08-21T03:05:34;3.58;;;1.20;;
27746;SDS011;15138;51.012;4.692;2023-08-21T03:08:02;3.60;;;1.30;;
27746;SDS011;15138;51.012;4.692;2023-08-21T03:10:30;1.83;;;1.05;;
27746;SDS011;15138;51.012;4.692;2023-08-21T03:13:00;4.57;;;1.02;;
27746;SDS011;15138;51.012;4.692;2023-08-21T03:15:28;2.97;;;1.30;;
27746;SDS011;15138;51.012;4.692;2023-08-21T03:17:56;5.03;;;1.20;;
27746;SDS011;15138;51.012;4.692;2023-08-21T03:20:26;3.83;;;1.15;;
27746;SDS011;15138;51.012;4.692;2023-08-21T03:22:55;4.05;;;1.63;;
27746;SDS011;15138;51.012;4.692;2023-08-21T03:25:24;3.13;;;1.00;;
27746;SDS011;15138;51.012;4.692;2023-08-21T03:27:52;3.65;;;1.13;;
27746;SDS011;15138;51.012;4.692;2023-08-21T03:30:20;2.05;;;1.08;;
27746;SDS011;15138;51.012;4.692;2023-08-21T03:32:48;3.15;;;1.40;;
27746;SDS011;15138;51.012;4.692;2023-08-21T03:35:16;5.85;;;1.52;;
27746;SDS011;15138;51.012;4.692;2023-08-21T03:37:44;4.03;;;1.20;;
27746;SDS011;15138;51.012;4.692;2023-08-21T03:40:14;2.60;;;0.90;;
27746;SDS011;15138;51.012;4.692;2023-08-21T03:42:43;5.15;;;1.40;;
27746;SDS011;15138;51.012;4.692;2023-08-21T03:45:20;2.70;;;1.30;;
27746;SDS011;15138;51.012;4.692;2023-08-21T03:47:48;1.67;;;1.00;;
27746;SDS011;15138;51.012;4.692;2023-08-21T03:50:16;3.75;;;1.20;;
27746;SDS011;15138;51.012;4.692;2023-08-21T03:52:44;1.63;;;0.90;;
27746;SDS011;15138;51.012;4.692;2023-08-21T03:55:12;3.22;;;1.20;;
27746;SDS011;15138;51.012;4.692;2023-08-21T03:57:42;3.17;;;1.23;;
27746;SDS011;15138;51.012;4.692;2023-08-21T04:00:11;4.50;;;1.20;;
27746;SDS011;15138;51.012;4.692;2023-08-21T04:02:39;4.95;;;1.30;;
27746;SDS011;15138;51.012;4.692;2023-08-21T04:05:08;4.05;;;1.20;;
27746;SDS011;15138;51.012;4.692;2023-08-21T04:07:37;3.08;;;1.38;;
27746;SDS011;15138;51.012;4.692;2023-08-21T04:10:05;7.28;;;1.67;;
27746;SDS011;15138;51.012;4.692;2023-08-21T04:12:35;2.55;;;1.10;;
27746;SDS011;15138;51.012;4.692;2023-08-21T04:15:04;6.85;;;1.23;;
27746;SDS011;15138;51.012;4.692;2023-08-21T04:17:33;2.97;;;1.17;;
27746;SDS011;15138;51.012;4.692;2023-08-21T04:20:05;2.80;;;1.20;;
27746;SDS011;15138;51.012;4.692;2023-08-21T04:22:34;4.18;;;1.33;;
27746;SDS011;15138;51.012;4.692;2023-08-21T04:25:03;4.22;;;1.10;;
27746;SDS011;15138;51.012;4.692;2023-08-21T04:27:33;2.85;;;1.15;;
27746;SDS011;15138;51.012;4.692;2023-08-21T04:30:03;2.88;;;1.08;;
27746;SDS011;15138;51.012;4.692;2023-08-21T04:32:32;4.72;;;1.40;;
27746;SDS011;15138;51.012;4.692;2023-08-21T04:35:00;3.15;;;1.80;;
27746;SDS011;15138;51.012;4.692;2023-08-21T04:37:28;4.07;;;1.20;;
27746;SDS011;15138;51.012;4.692;2023-08-21T04:39:56;3.85;;;1.27;;
27746;SDS011;15138;51.012;4.692;2023-08-21T04:42:24;1.83;;;1.20;;
27746;SDS011;15138;51.012;4.692;2023-08-21T04:44:52;2.38;;;1.00;;
27746;SDS011;15138;51.012;4.692;2023-08-21T04:47:22;3.92;;;1.23;;
27746;SDS011;15138;51.012;4.692;2023-08-21T04:49:53;5.78;;;1.38;;
27746;SDS011;15138;51.012;4.692;2023-08-21T04:52:22;2.72;;;1.08;;
27746;SDS011;15138;51.012;4.692;2023-08-21T04:54:51;2.67;;;1.30;;
27746;SDS011;15138;51.012;4.692;2023-08-21T04:57:20;3.67;;;1.10;;
27746;SDS011;15138;51.012;4.692;2023-08-21T04:59:48;3.83;;;1.40;;
27746;SDS011;15138;51.012;4.692;2023-08-21T05:02:17;3.75;;;1.30;;
27746;SDS011;15138;51.012;4.692;2023-08-21T05:04:46;4.10;;;1.15;;
27746;SDS011;15138;51.012;4.692;2023-08-21T05:07:14;3.33;;;1.20;;
27746;SDS011;15138;51.012;4.692;2023-08-21T05:09:43;5.13;;;1.40;;
27746;SDS011;15138;51.012;4.692;2023-08-21T05:12:11;4.50;;;1.30;;
27746;SDS011;15138;51.012;4.692;2023-08-21T05:14:39;5.13;;;1.08;;
27746;SDS011;15138;51.012;4.692;2023-08-21T05:17:07;3.53;;;1.30;;
27746;SDS011;15138;51.012;4.692;2023-08-21T05:19:35;7.05;;;1.70;;
27746;SDS011;15138;51.012;4.692;2023-08-21T05:22:05;3.20;;;1.02;;
27746;SDS011;15138;51.012;4.692;2023-08-21T05:24:33;5.20;;;1.45;;
27746;SDS011;15138;51.012;4.692;2023-08-21T05:27:01;2.60;;;1.13;;
27746;SDS011;15138;51.012;4.692;2023-08-21T05:29:30;4.88;;;1.35;;
27746;SDS011;15138;51.012;4.692;2023-08-21T05:31:59;3.22;;;1.20;;
27746;SDS011;15138;51.012;4.692;2023-08-21T05:34:27;3.55;;;1.30;;
27746;SDS011;15138;51.012;4.692;2023-08-21T05:36:55;2.70;;;1.20;;
27746;SDS011;15138;51.012;4.692;2023-08-21T05:39:24;5.82;;;1.55;;
27746;SDS011;15138;51.012;4.692;2023-08-21T05:41:52;4.45;;;1.20;;
27746;SDS011;15138;51.012;4.692;2023-08-21T05:44:21;3.80;;;1.65;;
27746;SDS011;15138;51.012;4.692;2023-08-21T05:46:49;6.65;;;1.63;;
27746;SDS011;15138;51.012;4.692;2023-08-21T05:49:17;5.25;;;1.80;;
27746;SDS011;15138;51.012;4.692;2023-08-21T05:51:45;6.57;;;2.17;;
27746;SDS011;15138;51.012;4.692;2023-08-21T05:54:13;3.72;;;1.30;;
27746;SDS011;15138;51.012;4.692;2023-08-21T05:56:43;8.52;;;2.13;;
27746;SDS011;15138;51.012;4.692;2023-08-21T05:59:11;5.28;;;1.80;;
27746;SDS011;15138;51.012;4.692;2023-08-21T06:01:39;5.93;;;1.70;;
27746;SDS011;15138;51.012;4.692;2023-08-21T06:04:07;7.68;;;1.95;;
27746;SDS011;15138;51.012;4.692;2023-08-21T06:06:36;3.92;;;1.48;;
27746;SDS011;15138;51.012;4.692;2023-08-21T06:09:04;5.20;;;1.65;;
27746;SDS011;15138;51.012;4.692;2023-08-21T06:11:33;5.22;;;1.92;;
27746;SDS011;15138;51.012;4.692;2023-08-21T06:14:03;4.95;;;1.48;;
27746;SDS011;15138;51.012;4.692;2023-08-21T06:16:31;2.83;;;1.60;;
27746;SDS011;15138;51.012;4.692;2023-08-21T06:19:00;5.68;;;1.83;;
27746;SDS011;15138;51.012;4.692;2023-08-21T06:21:28;6.00;;;2.28;;
27746;SDS011;15138;51.012;4.692;2023-08-21T06:23:56;7.22;;;1.90;;
27746;SDS011;15138;51.012;4.692;2023-08-21T06:26:24;8.85;;;1.92;;
27746;SDS011;15138;51.012;4.692;2023-08-21T06:28:52;7.18;;;2.10;;
27746;SDS011;15138;51.012;4.692;2023-08-21T06:31:22;6.47;;;2.10;;
27746;SDS011;15138;51.012;4.692;2023-08-21T06:33:50;7.10;;;1.98;;
27746;SDS011;15138;51.012;4.692;2023-08-21T06:36:18;6.28;;;2.20;;
27746;SDS011;15138;51.012;4.692;2023-08-21T06:38:46;5.47;;;1.55;;
27746;SDS011;15138;51.012;4.692;2023-08-21T06:41:14;8.23;;;1.92;;
27746;SDS011;15138;51.012;4.692;2023-08-21T06:43:43;5.90;;;1.42;;
27746;SDS011;15138;51.012;4.692;2023-08-21T06:46:11;6.25;;;1.90;;
27746;SDS011;15138;51.012;4.692;2023-08-21T06:48:41;6.57;;;2.00;;
27746;SDS011;15138;51.012;4.692;2023-08-21T06:51:10;7.28;;;2.15;;
27746;SDS011;15138;51.012;4.692;2023-08-21T06:53:42;4.45;;;1.88;;
27746;SDS011;15138;51.012;4.692;2023-08-21T06:56:11;7.40;;;2.65;;
27746;SDS011;15138;51.012;4.692;2023-08-21T06:58:39;9.02;;;2.15;;
27746;SDS011;15138;51.012;4.692;2023-08-21T07:01:07;9.32;;;2.67;;
27746;SDS011;15138;51.012;4.692;2023-08-21T07:03:35;13.90;;;2.25;;
27746;SDS011;15138;51.012;4.692;2023-08-21T07:06:05;9.02;;;2.10;;
27746;SDS011;15138;51.012;4.692;2023-08-21T07:08:33;5.57;;;1.58;;
27746;SDS011;15138;51.012;4.692;2023-08-21T07:11:02;6.40;;;1.77;;
27746;SDS011;15138;51.012;4.692;2023-08-21T07:13:31;5.85;;;1.80;;
27746;SDS011;15138;51.012;4.692;2023-08-21T07:15:59;6.00;;;1.77;;
27746;SDS011;15138;51.012;4.692;2023-08-21T07:18:30;8.10;;;2.22;;
27746;SDS011;15138;51.012;4.692;2023-08-21T07:20:59;6.38;;;1.67;;
27746;SDS011;15138;51.012;4.692;2023-08-21T07:23:29;5.78;;;1.67;;
27746;SDS011;15138;51.012;4.692;2023-08-21T07:25:58;6.78;;;2.08;;
27746;SDS011;15138;51.012;4.692;2023-08-21T07:28:26;7.32;;;1.95;;
27746;SDS011;15138;51.012;4.692;2023-08-21T07:30:54;5.93;;;1.60;;
27746;SDS011;15138;51.012;4.692;2023-08-21T07:33:23;9.45;;;2.47;;
27746;SDS011;15138;51.012;4.692;2023-08-21T07:35:58;7.03;;;2.22;;
27746;SDS011;15138;51.012;4.692;2023-08-21T07:38:26;8.10;;;1.95;;
27746;SDS011;15138;51.012;4.692;2023-08-21T07:41:06;9.30;;;2.17;;
27746;SDS011;15138;51.012;4.692;2023-08-21T07:43:36;9.55;;;2.10;;
27746;SDS011;15138;51.012;4.692;2023-08-21T07:46:05;8.60;;;1.98;;
27746;SDS011;15138;51.012;4.692;2023-08-21T07:48:34;4.85;;;1.67;;
27746;SDS011;15138;51.012;4.692;2023-08-21T07:51:03;5.32;;;1.88;;
27746;SDS011;15138;51.012;4.692;2023-08-21T07:53:32;5.43;;;1.83;;
27746;SDS011;15138;51.012;4.692;2023-08-21T07:56:01;7.45;;;2.22;;
27746;SDS011;15138;51.012;4.692;2023-08-21T07:58:30;7.38;;;2.17;;
27746;SDS011;15138;51.012;4.692;2023-08-21T08:00:59;7.22;;;1.67;;
27746;SDS011;15138;51.012;4.692;2023-08-21T08:03:27;6.43;;;1.60;;
27746;SDS011;15138;51.012;4.692;2023-08-21T08:05:56;8.40;;;1.38;;
27746;SDS011;15138;51.012;4.692;2023-08-21T08:08:24;8.93;;;1.80;;
27746;SDS011;15138;51.012;4.692;2023-08-21T08:10:54;8.93;;;2.17;;
27746;SDS011;15138;51.012;4.692;2023-08-21T08:13:22;5.80;;;1.60;;
27746;SDS011;15138;51.012;4.692;2023-08-21T08:15:50;8.13;;;2.30;;
27746;SDS011;15138;51.012;4.692;2023-08-21T08:18:18;6.63;;;1.75;;
27746;SDS011;15138;51.012;4.692;2023-08-21T08:20:46;6.85;;;1.98;;
27746;SDS011;15138;51.012;4.692;2023-08-21T08:23:15;5.57;;;1.75;;
27746;SDS011;15138;51.012;4.692;2023-08-21T08:25:46;8.35;;;1.73;;
27746;SDS011;15138;51.012;4.692;2023-08-21T08:28:16;5.50;;;1.58;;
27746;SDS011;15138;51.012;4.692;2023-08-21T08:30:44;5.65;;;1.75;;
27746;SDS011;15138;51.012;4.692;2023-08-21T08:33:13;6.78;;;1.90;;
27746;SDS011;15138;51.012;4.692;2023-08-21T08:35:41;6.88;;;2.13;;
27746;SDS011;15138;51.012;4.692;2023-08-21T08:38:10;8.40;;;1.90;;
27746;SDS011;15138;51.012;4.692;2023-08-21T08:40:42;10.00;;;2.10;;
27746;SDS011;15138;51.012;4.692;2023-08-21T08:43:13;8.38;;;1.85;;
27746;SDS011;15138;51.012;4.692;2023-08-21T08:45:43;7.07;;;1.70;;
27746;SDS011;15138;51.012;4.692;2023-08-21T08:48:14;5.65;;;2.00;;
27746;SDS011;15138;51.012;4.692;2023-08-21T08:50:43;7.93;;;1.67;;
27746;SDS011;15138;51.012;4.692;2023-08-21T08:53:13;4.65;;;1.50;;
27746;SDS011;15138;51.012;4.692;2023-08-21T08:55:43;5.85;;;1.70;;
27746;SDS011;15138;51.012;4.692;2023-08-21T08:58:11;7.38;;;1.90;;
27746;SDS011;15138;51.012;4.692;2023-08-21T09:00:39;8.20;;;1.42;;
27746;SDS011;15138;51.012;4.692;2023-08-21T09:03:09;6.65;;;1.17;;
27746;SDS011;15138;51.012;4.692;2023-08-21T09:05:39;5.53;;;1.40;;
27746;SDS011;15138;51.012;4.692;2023-08-21T09:08:11;4.50;;;1.38;;
27746;SDS011;15138;51.012;4.692;2023-08-21T09:10:40;5.88;;;1.60;;
27746;SDS011;15138;51.012;4.692;2023-08-21T09:13:11;5.10;;;1.40;;
27746;SDS011;15138;51.012;4.692;2023-08-21T09:15:41;4.35;;;1.30;;
27746;SDS011;15138;51.012;4.692;2023-08-21T09:18:11;7.28;;;1.60;;
27746;SDS011;15138;51.012;4.692;2023-08-21T09:20:41;5.40;;;1.48;;
27746;SDS011;15138;51.012;4.692;2023-08-21T09:23:12;4.38;;;1.30;;
27746;SDS011;15138;51.012;4.692;2023-08-21T09:25:43;5.43;;;1.30;;
27746;SDS011;15138;51.012;4.692;2023-08-21T09:28:13;3.78;;;1.23;;
27746;SDS011;15138;51.012;4.692;2023-08-21T09:30:48;4.32;;;1.10;;
27746;SDS011;15138;51.012;4.692;2023-08-21T09:33:19;5.90;;;1.25;;
27746;SDS011;15138;51.012;4.692;2023-08-21T09:35:49;4.05;;;1.13;;
27746;SDS011;15138;51.012;4.692;2023-08-21T09:38:19;6.40;;;1.25;;
27746;SDS011;15138;51.012;4.692;2023-08-21T09:40:51;5.90;;;1.10;;
27746;SDS011;15138;51.012;4.692;2023-08-21T09:43:21;7.72;;;1.27;;
27746;SDS011;15138;51.012;4.692;2023-08-21T09:45:54;2.75;;;0.77;;
27746;SDS011;15138;51.012;4.692;2023-08-21T09:48:25;3.40;;;1.10;;
27746;SDS011;15138;51.012;4.692;2023-08-21T09:50:54;4.43;;;1.10;;
27746;SDS011;15138;51.012;4.692;2023-08-21T09:53:23;3.03;;;1.00;;
27746;SDS011;15138;51.012;4.692;2023-08-21T09:55:52;4.22;;;1.30;;
27746;SDS011;15138;51.012;4.692;2023-08-21T09:58:22;3.70;;;1.15;;
27746;SDS011;15138;51.012;4.692;2023-08-21T10:00:50;2.97;;;0.90;;
27746;SDS011;15138;51.012;4.692;2023-08-21T10:03:25;2.65;;;0.80;;
27746;SDS011;15138;51.012;4.692;2023-08-21T10:05:54;2.13;;;0.70;;
27746;SDS011;15138;51.012;4.692;2023-08-21T10:08:25;5.95;;;1.42;;
27746;SDS011;15138;51.012;4.692;2023-08-21T10:10:55;4.50;;;1.25;;
27746;SDS011;15138;51.012;4.692;2023-08-21T10:13:29;6.05;;;1.20;;
27746;SDS011;15138;51.012;4.692;2023-08-21T10:15:58;3.33;;;1.10;;
27746;SDS011;15138;51.012;4.692;2023-08-21T10:18:30;2.83;;;0.90;;
27746;SDS011;15138;51.012;4.692;2023-08-21T10:21:10;3.30;;;1.20;;
27746;SDS011;15138;51.012;4.692;2023-08-21T10:23:39;3.60;;;1.02;;
27746;SDS011;15138;51.012;4.692;2023-08-21T10:26:10;3.72;;;0.98;;
27746;SDS011;15138;51.012;4.692;2023-08-21T10:28:42;5.60;;;1.40;;
27746;SDS011;15138;51.012;4.692;2023-08-21T10:31:34;5.53;;;1.65;;
27746;SDS011;15138;51.012;4.692;2023-08-21T10:34:04;3.70;;;1.25;;
27746;SDS011;15138;51.012;4.692;2023-08-21T10:36:37;3.70;;;1.30;;
27746;SDS011;15138;51.012;4.692;2023-08-21T10:39:12;4.43;;;1.00;;
27746;SDS011;15138;51.012;4.692;2023-08-21T10:41:52;2.95;;;0.95;;
27746;SDS011;15138;51.012;4.692;2023-08-21T10:47:18;5.18;;;1.05;;
27746;SDS011;15138;51.012;4.692;2023-08-21T10:49:52;8.10;;;1.70;;
27746;SDS011;15138;51.012;4.692;2023-08-21T10:52:22;5.85;;;1.15;;
27746;SDS011;15138;51.012;4.692;2023-08-21T10:54:52;5.22;;;1.10;;
27746;SDS011;15138;51.012;4.692;2023-08-21T10:57:22;1.90;;;0.80;;
27746;SDS011;15138;51.012;4.692;2023-08-21T10:59:51;4.45;;;1.08;;
27746;SDS011;15138;51.012;4.692;2023-08-21T11:02:20;8.48;;;1.48;;
27746;SDS011;15138;51.012;4.692;2023-08-21T11:04:50;8.88;;;1.45;;
27746;SDS011;15138;51.012;4.692;2023-08-21T11:07:20;7.07;;;1.42;;
27746;SDS011;15138;51.012;4.692;2023-08-21T11:09:48;6.20;;;0.98;;
27746;SDS011;15138;51.012;4.692;2023-08-21T11:12:18;5.63;;;0.88;;
27746;SDS011;15138;51.012;4.692;2023-08-21T11:14:48;3.67;;;0.90;;
27746;SDS011;15138;51.012;4.692;2023-08-21T11:17:18;5.10;;;1.38;;
27746;SDS011;15138;51.012;4.692;2023-08-21T11:19:46;5.38;;;1.38;;
27746;SDS011;15138;51.012;4.692;2023-08-21T11:22:17;6.15;;;1.52;;
27746;SDS011;15138;51.012;4.692;2023-08-21T11:24:46;4.55;;;1.23;;
27746;SDS011;15138;51.012;4.692;2023-08-21T11:27:17;5.10;;;1.15;;
27746;SDS011;15138;51.012;4.692;2023-08-21T11:29:59;5.03;;;0.93;;
27746;SDS011;15138;51.012;4.692;2023-08-21T11:32:29;4.43;;;0.90;;
27746;SDS011;15138;51.012;4.692;2023-08-21T11:34:57;2.67;;;1.15;;
27746;SDS011;15138;51.012;4.692;2023-08-21T11:37:27;4.40;;;1.08;;
27746;SDS011;15138;51.012;4.692;2023-08-21T11:39:55;3.40;;;1.10;;
27746;SDS011;15138;51.012;4.692;2023-08-21T11:42:28;4.95;;;1.08;;
27746;SDS011;15138;51.012;4.692;2023-08-21T11:44:58;4.50;;;1.00;;
27746;SDS011;15138;51.012;4.692;2023-08-21T11:47:30;3.58;;;1.00;;
27746;SDS011;15138;51.012;4.692;2023-08-21T11:50:01;4.85;;;0.77;;
27746;SDS011;15138;51.012;4.692;2023-08-21T11:52:32;3.20;;;1.00;;
27746;SDS011;15138;51.012;4.692;2023-08-21T11:55:07;3.13;;;1.02;;
27746;SDS011;15138;51.012;4.692;2023-08-21T11:57:45;4.60;;;1.30;;
27746;SDS011;15138;51.012;4.692;2023-08-21T12:00:14;2.80;;;0.80;;
27746;SDS011;15138;51.012;4.692;2023-08-21T12:02:53;5.70;;;1.23;;
27746;SDS011;15138;51.012;4.692;2023-08-21T12:05:22;3.42;;;1.00;;
27746;SDS011;15138;51.012;4.692;2023-08-21T12:07:52;2.50;;;0.82;;
27746;SDS011;15138;51.012;4.692;2023-08-21T12:10:24;3.47;;;0.80;;
27746;SDS011;15138;51.012;4.692;2023-08-21T12:12:52;3.17;;;0.90;;
27746;SDS011;15138;51.012;4.692;2023-08-21T12:15:20;3.42;;;1.00;;
27746;SDS011;15138;51.012;4.692;2023-08-21T12:17:49;6.03;;;0.85;;
27746;SDS011;15138;51.012;4.692;2023-08-21T12:20:18;1.95;;;0.90;;
27746;SDS011;15138;51.012;4.692;2023-08-21T12:22:46;3.22;;;1.00;;
27746;SDS011;15138;51.012;4.692;2023-08-21T12:25:15;5.00;;;1.02;;
27746;SDS011;15138;51.012;4.692;2023-08-21T12:27:44;4.95;;;1.25;;
27746;SDS011;15138;51.012;4.692;2023-08-21T12:30:26;3.70;;;0.95;;
27746;SDS011;15138;51.012;4.692;2023-08-21T12:32:54;4.70;;;1.00;;
27746;SDS011;15138;51.012;4.692;2023-08-21T12:35:42;3.72;;;1.13;;
27746;SDS011;15138;51.012;4.692;2023-08-21T12:38:13;3.67;;;1.20;;
27746;SDS011;15138;51.012;4.692;2023-08-21T12:40:42;3.70;;;1.00;;
27746;SDS011;15138;51.012;4.692;2023-08-21T12:43:11;3.83;;;1.10;;
27746;SDS011;15138;51.012;4.692;2023-08-21T12:45:39;3.03;;;1.10;;
27746;SDS011;15138;51.012;4.692;2023-08-21T12:48:08;5.55;;;1.20;;
27746;SDS011;15138;51.012;4.692;2023-08-21T12:50:36;3.85;;;0.93;;
27746;SDS011;15138;51.012;4.692;2023-08-21T12:53:04;3.47;;;0.90;;
27746;SDS011;15138;51.012;4.692;2023-08-21T12:55:32;5.32;;;0.90;;
27746;SDS011;15138;51.012;4.692;2023-08-21T12:58:02;2.45;;;1.00;;
27746;SDS011;15138;51.012;4.692;2023-08-21T13:00:31;4.57;;;1.20;;
27746;SDS011;15138;51.012;4.692;2023-08-21T13:03:00;3.28;;;1.30;;
27746;SDS011;15138;51.012;4.692;2023-08-21T13:05:29;2.17;;;1.08;;
27746;SDS011;15138;51.012;4.692;2023-08-21T13:07:57;2.67;;;0.90;;
27746;SDS011;15138;51.012;4.692;2023-08-21T13:10:26;5.40;;;1.30;;
27746;SDS011;15138;51.012;4.692;2023-08-21T13:12:54;6.25;;;1.40;;
27746;SDS011;15138;51.012;4.692;2023-08-21T13:15:23;3.35;;;1.30;;
27746;SDS011;15138;51.012;4.692;2023-08-21T13:17:51;13.70;;;2.72;;
27746;SDS011;15138;51.012;4.692;2023-08-21T13:20:20;5.78;;;1.25;;
27746;SDS011;15138;51.012;4.692;2023-08-21T13:22:48;6.43;;;1.40;;
27746;SDS011;15138;51.012;4.692;2023-08-21T13:25:18;5.07;;;1.30;;
27746;SDS011;15138;51.012;4.692;2023-08-21T13:27:49;3.97;;;1.40;;
27746;SDS011;15138;51.012;4.692;2023-08-21T13:30:17;4.32;;;1.38;;
27746;SDS011;15138;51.012;4.692;2023-08-21T13:32:48;4.53;;;1.30;;
27746;SDS011;15138;51.012;4.692;2023-08-21T13:35:16;2.55;;;1.20;;
27746;SDS011;15138;51.012;4.692;2023-08-21T13:37:46;4.07;;;1.20;;
27746;SDS011;15138;51.012;4.692;2023-08-21T13:40:14;2.92;;;1.13;;
27746;SDS011;15138;51.012;4.692;2023-08-21T13:42:43;3.58;;;1.15;;
27746;SDS011;15138;51.012;4.692;2023-08-21T13:45:12;4.90;;;1.20;;
27746;SDS011;15138;51.012;4.692;2023-08-21T13:47:42;4.60;;;1.35;;
27746;SDS011;15138;51.012;4.692;2023-08-21T13:50:14;5.75;;;1.50;;
27746;SDS011;15138;51.012;4.692;2023-08-21T13:52:44;4.95;;;1.15;;
27746;SDS011;15138;51.012;4.692;2023-08-21T13:55:14;3.47;;;1.20;;
27746;SDS011;15138;51.012;4.692;2023-08-21T13:57:44;3.47;;;1.40;;
27746;SDS011;15138;51.012;4.692;2023-08-21T14:00:12;2.78;;;1.05;;
27746;SDS011;15138;51.012;4.692;2023-08-21T14:02:44;4.25;;;1.30;;
27746;SDS011;15138;51.012;4.692;2023-08-21T14:05:14;5.13;;;1.35;;
27746;SDS011;15138;51.012;4.692;2023-08-21T14:07:42;5.88;;;1.00;;
27746;SDS011;15138;51.012;4.692;2023-08-21T14:10:11;3.72;;;1.10;;
27746;SDS011;15138;51.012;4.692;2023-08-21T14:12:41;5.13;;;1.35;;
27746;SDS011;15138;51.012;4.692;2023-08-21T14:15:09;2.22;;;1.00;;
27746;SDS011;15138;51.012;4.692;2023-08-21T14:17:38;3.13;;;1.00;;
27746;SDS011;15138;51.012;4.692;2023-08-21T14:20:07;2.55;;;0.77;;
27746;SDS011;15138;51.012;4.692;2023-08-21T14:22:37;4.28;;;1.10;;
27746;SDS011;15138;51.012;4.692;2023-08-21T14:25:05;3.80;;;0.90;;
27746;SDS011;15138;51.012;4.692;2023-08-21T14:27:34;1.98;;;0.90;;
27746;SDS011;15138;51.012;4.692;2023-08-21T14:30:03;3.92;;;1.10;;
27746;SDS011;15138;51.012;4.692;2023-08-21T14:32:34;2.17;;;0.82;;
27746;SDS011;15138;51.012;4.692;2023-08-21T14:35:04;1.90;;;0.90;;
27746;SDS011;15138;51.012;4.692;2023-08-21T14:37:34;1.58;;;0.80;;
27746;SDS011;15138;51.012;4.692;2023-08-21T14:40:04;2.63;;;0.90;;
27746;SDS011;15138;51.012;4.692;2023-08-21T14:42:34;2.47;;;0.90;;
27746;SDS011;15138;51.012;4.692;2023-08-21T14:45:04;2.10;;;0.90;;
27746;SDS011;15138;51.012;4.692;2023-08-21T14:47:33;2.67;;;1.00;;
27746;SDS011;15138;51.012;4.692;2023-08-21T14:50:02;0.80;;;0.60;;
27746;SDS011;15138;51.012;4.692;2023-08-21T14:52:31;2.22;;;0.70;;
27746;SDS011;15138;51.012;4.692;2023-08-21T14:54:59;2.67;;;0.80;;
27746;SDS011;15138;51.012;4.692;2023-08-21T14:57:28;2.83;;;0.73;;
27746;SDS011;15138;51.012;4.692;2023-08-21T14:59:57;2.05;;;0.70;;
27746;SDS011;15138;51.012;4.692;2023-08-21T15:02:25;1.83;;;0.90;;
27746;SDS011;15138;51.012;4.692;2023-08-21T15:04:53;2.67;;;0.80;;